Time;durP1;ratioP1;P1;durP2;ratioP2;P2;SDS_P1;SDS_P2;PMS_P1;PMS_P2;Temp;Humidity;BMP_temperature;BMP_pressure;BME280_temperature;BME280_humidity;BME280_pressure;Samples;Min_cycle;Max_cycle;Signal;HPM_P1;HPM_P2
2021/11/02 00:00:38;;;;;;;;;;;7.40;99.90;;;6.40;100.00;94378.56;10550788;28;2103;-75
2021/11/02 00:05:41;;;;;;;;;;;7.50;99.90;;;6.47;100.00;94381.69;10550288;28;2059;-76
2021/11/02 00:10:44;;;;;;;;;;;7.50;99.90;;;6.46;100.00;94372.09;10559474;28;1977;-75
2021/11/02 00:15:51;;;;;;;;;;;7.50;99.90;;;6.48;100.00;94371.81;10554043;28;2071;-75
2021/11/02 00:21:00;;;;;;;;;;;7.50;99.90;;;6.47;100.00;94375.56;10558169;28;2029;-75
2021/11/02 00:26:04;;;;;;;;;;;7.50;99.90;;;6.44;100.00;94376.91;10553225;28;2044;-75
2021/11/02 00:31:06;;;;;;;;;;;7.60;99.90;;;6.42;100.00;94379.06;10554454;28;1995;-75
2021/11/02 00:36:10;;;;;;;;;;;7.50;99.90;;;6.39;100.00;94362.81;10553256;28;1991;-75
2021/11/02 00:41:13;;;;;;;;;;;7.50;99.90;;;6.40;100.00;94364.41;10555060;28;1966;-75
2021/11/02 00:46:23;;;;;;;;;;;7.50;99.90;;;6.46;100.00;94372.09;10548672;28;1962;-74
2021/11/02 00:51:26;;;;;;;;;;;7.50;99.90;;;6.45;100.00;94365.16;10553119;28;2000;-74
2021/11/02 00:56:29;;;;;;;;;;;7.50;99.90;;;6.47;100.00;94363.00;10556869;28;2099;-74
2021/11/02 01:01:32;;;;;;;;;;;7.60;99.90;;;6.51;100.00;94360.56;10554921;28;2094;-74
2021/11/02 01:06:35;;;;;;;;;;;7.60;99.90;;;6.49;100.00;94363.53;10550507;28;2063;-74
2021/11/02 01:11:37;;;;;;;;;;;7.60;99.90;;;6.52;100.00;94358.69;10561887;28;2107;-74
2021/11/02 01:16:40;;;;;;;;;;;7.60;99.90;;;6.54;100.00;94356.53;10558770;28;2176;-74
2021/11/02 01:21:43;;;;;;;;;;;7.60;99.90;;;6.60;100.00;94347.41;10553407;28;1965;-75
2021/11/02 01:26:46;;;;;;;;;;;7.60;99.90;;;6.63;100.00;94349.50;10545098;28;1977;-74
2021/11/02 01:31:49;;;;;;;;;;;7.70;99.90;;;6.59;100.00;94329.78;10556449;28;2730;-74
2021/11/02 01:36:52;;;;;;;;;;;7.70;99.90;;;6.44;100.00;94326.22;10562998;28;2064;-74
2021/11/02 01:41:55;;;;;;;;;;;7.60;99.90;;;6.34;100.00;94330.84;10560241;28;2048;-74
2021/11/02 01:46:58;;;;;;;;;;;7.50;99.90;;;6.31;100.00;94329.53;10562249;28;2047;-75
2021/11/02 01:52:00;;;;;;;;;;;7.50;99.90;;;6.19;100.00;94324.56;10558337;28;2193;-75
2021/11/02 01:57:03;;;;;;;;;;;7.40;99.90;;;6.08;100.00;94322.28;10563547;28;2056;-74
2021/11/02 02:02:07;;;;;;;;;;;7.30;99.90;;;6.03;100.00;94317.78;10558150;28;2471;-74
2021/11/02 02:07:10;;;;;;;;;;;7.30;99.90;;;5.90;100.00;94329.06;10552416;28;1977;-74
2021/11/02 02:12:13;;;;;;;;;;;7.10;99.90;;;5.85;100.00;94331.75;10564116;28;2009;-74
2021/11/02 02:17:35;;;;;;;;;;;7.10;99.90;;;5.74;100.00;94320.41;10564370;28;1966;-74
2021/11/02 02:22:47;;;;;;;;;;;7.00;99.90;;;5.57;100.00;94309.31;10564321;28;2020;-74
2021/11/02 02:27:50;;;;;;;;;;;6.90;99.90;;;5.58;100.00;94300.25;10563721;28;2083;-75
2021/11/02 02:33:13;;;;;;;;;;;6.80;99.90;;;5.50;100.00;94304.31;10563900;28;2037;-74
2021/11/02 02:38:16;;;;;;;;;;;6.80;99.90;;;5.45;100.00;94300.88;10555190;28;1938;-73
2021/11/02 02:43:19;;;;;;;;;;;6.70;99.90;;;5.46;100.00;94308.59;10561935;28;2012;-74
2021/11/02 02:48:22;;;;;;;;;;;6.70;99.90;;;5.49;100.00;94302.72;10561513;28;2044;-73
2021/11/02 02:53:25;;;;;;;;;;;6.70;99.90;;;5.48;100.00;94305.66;10566624;28;2123;-75
2021/11/02 02:58:28;;;;;;;;;;;6.70;99.90;;;5.48;100.00;94297.66;10560484;28;2741;-75
2021/11/02 03:03:31;;;;;;;;;;;6.80;99.90;;;5.50;100.00;94298.19;10560446;28;2010;-75
2021/11/02 03:08:34;;;;;;;;;;;6.70;99.90;;;5.41;100.00;94298.78;10559469;27;2013;-75
2021/11/02 03:13:38;;;;;;;;;;;6.70;99.90;;;5.39;100.00;94297.44;10558041;28;1986;-75
2021/11/02 03:19:09;;;;;;;;;;;6.70;99.90;;;5.36;100.00;94306.78;10556876;28;1943;-75
2021/11/02 03:51:17;;;;;;;;;;;6.40;99.90;;;5.11;100.00;94301.63;10563530;28;2009;-74
2021/11/02 03:56:28;;;;;;;;;;;6.40;99.90;;;5.13;100.00;94299.47;10563132;28;2017;-74
2021/11/02 04:01:47;;;;;;;;;;;6.30;99.90;;;5.12;100.00;94292.56;10562262;28;2007;-74
2021/11/02 05:54:30;;;;;;;;;;;6.00;99.90;;;5.02;100.00;94324.56;10593434;28;1882;-75
2021/11/02 05:59:35;;;;;;;;;;;6.10;99.90;;;5.19;100.00;94319.69;10605360;28;1737;-74
2021/11/02 06:10:04;;;;;;;;;;;6.30;99.90;;;5.41;100.00;94328.09;10510863;28;1843;-75
2021/11/02 06:31:13;;;;;;;;;;;6.70;99.90;;;5.67;100.00;94333.25;10528015;28;2018;-73
2021/11/02 07:19:02;;;;;;;;;;;7.50;99.90;;;6.62;100.00;94350.59;10545689;28;1981;-80
2021/11/02 07:24:09;;;;;;;;;;;7.60;99.90;;;6.67;100.00;94353.97;10542445;28;1951;-78
2021/11/02 08:49:41;;;;;;;;;;;8.30;99.90;;;7.46;100.00;94358.94;10536747;28;1962;-79
2021/11/02 08:54:44;;;;;;;;;;;8.40;99.90;;;7.59;100.00;94359.00;10549470;28;1926;-81
2021/11/02 08:59:46;;;;;;;;;;;8.60;99.90;;;7.70;100.00;94353.50;10551323;28;2014;-82
2021/11/02 09:04:49;;;;;;;;;;;8.60;99.90;;;7.81;99.25;94354.94;10522157;28;1926;-81
2021/11/02 09:09:52;;;;;;;;;;;8.80;99.90;;;7.91;97.45;94343.31;10546981;28;1927;-79
2021/11/02 09:14:55;;;;;;;;;;;8.90;99.90;;;7.92;97.46;94351.03;10514426;28;1910;-78
2021/11/02 09:19:58;;;;;;;;;;;8.90;99.90;;;8.00;96.66;94354.94;10533096;28;1875;-78
2021/11/02 09:25:01;;;;;;;;;;;9.00;99.90;;;8.16;96.29;94352.81;10533285;28;1946;-78
2021/11/02 09:30:04;;;;;;;;;;;9.10;99.90;;;8.32;96.19;94349.59;10528498;28;1890;-79
2021/11/02 09:35:07;;;;;;;;;;;9.20;99.90;;;8.33;94.07;94345.84;10538251;28;4123;-79
2021/11/02 09:40:10;;;;;;;;;;;9.30;99.90;;;8.55;91.28;94347.88;10558368;28;2877;-78
2021/11/02 09:45:14;;;;;;;;;;;9.40;99.90;;;8.55;85.45;94336.38;10528065;28;2068;-78
2021/11/02 09:50:17;;;;;;;;;;;9.50;99.90;;;8.58;86.31;94347.28;10555997;28;1997;-77
2021/11/02 09:55:20;;;;;;;;;;;9.60;99.90;;;8.71;86.13;94340.34;10539045;28;2214;-77
2021/11/02 10:00:26;;;;;;;;;;;9.60;99.90;;;8.74;87.95;94333.63;10518086;28;1894;-76
2021/11/02 10:05:31;;;;;;;;;;;9.70;99.90;;;8.85;85.36;94316.28;10543856;28;1954;-77
2021/11/02 10:10:35;;;;;;;;;;;9.80;99.90;;;8.90;85.17;94324.19;10535768;28;1914;-77
2021/11/02 10:15:42;;;;;;;;;;;9.90;99.90;;;8.93;82.96;94316.38;10517235;28;1926;-78
2021/11/02 10:20:47;;;;;;;;;;;9.90;99.90;;;8.99;83.81;94313.59;10517472;28;1974;-78
2021/11/02 10:25:49;;;;;;;;;;;10.00;99.90;;;8.96;82.50;94309.59;10534234;28;1922;-78
2021/11/02 10:30:52;;;;;;;;;;;10.00;99.90;;;9.04;80.69;94313.50;10541491;28;2085;-77
2021/11/02 10:35:55;;;;;;;;;;;10.00;99.90;;;9.23;78.44;94318.72;10532922;28;1918;-77
2021/11/02 10:41:01;;;;;;;;;;;10.10;99.90;;;9.37;76.22;94314.13;10532589;28;2156;-77
2021/11/02 10:46:05;;;;;;;;;;;10.30;99.90;;;9.53;73.70;94315.38;10502697;28;2164;-76
2021/11/02 10:51:09;;;;;;;;;;;10.40;99.90;;;9.65;72.59;94310.28;10516250;28;1878;-76
2021/11/02 10:56:12;;;;;;;;;;;10.50;99.90;;;9.78;72.85;94310.53;10503198;28;1980;-75
2021/11/02 11:01:15;;;;;;;;;;;10.60;99.90;;;9.81;72.41;94301.88;10506055;28;1922;-76
2021/11/02 11:06:18;;;;;;;;;;;10.70;99.90;;;9.83;72.76;94305.06;10517087;28;1923;-76
2021/11/02 11:11:21;;;;;;;;;;;10.80;99.90;;;9.88;69.25;94313.00;10520431;28;1966;-77
2021/11/02 11:16:24;;;;;;;;;;;10.80;99.90;;;9.81;69.98;94308.06;10528039;28;1918;-76
2021/11/02 11:21:27;;;;;;;;;;;10.80;99.90;;;10.01;68.23;94317.50;10526661;28;1886;-76
2021/11/02 11:26:30;;;;;;;;;;;10.90;99.90;;;10.15;70.68;94322.81;10517145;28;1938;-75
2021/11/02 11:31:35;;;;;;;;;;;11.10;99.90;;;10.48;68.91;94315.28;10525806;28;2068;-76
2021/11/02 11:36:38;;;;;;;;;;;11.20;99.90;;;10.96;66.73;94306.50;10516734;28;1906;-75
2021/11/02 11:41:41;;;;;;;;;;;11.60;99.90;;;11.16;65.64;94308.63;10526620;28;2009;-75
2021/11/02 11:46:44;;;;;;;;;;;11.80;99.90;;;10.76;70.49;94316.72;10521366;28;2373;-76
2021/11/02 11:51:47;;;;;;;;;;;11.80;99.90;;;9.94;76.46;94330.56;10503865;28;2070;-76
2021/11/02 11:56:49;;;;;;;;;;;11.40;99.90;;;9.28;88.24;94342.75;10517869;28;1940;-78
2021/11/02 12:01:53;;;;;;;;;;;10.60;99.90;;;9.08;94.97;94339.38;10524258;28;1966;-78
2021/11/02 12:06:56;;;;;;;;;;;10.30;99.90;;;9.08;94.82;94342.06;10514248;28;2142;-78
2021/11/02 12:11:58;;;;;;;;;;;10.20;99.90;;;9.24;94.74;94334.50;10534432;28;1899;-78
2021/11/02 12:17:01;;;;;;;;;;;10.20;99.90;;;9.62;93.66;94336.94;10540995;28;1956;-79
2021/11/02 12:22:05;;;;;;;;;;;10.40;99.90;;;10.11;86.31;94333.34;10541368;28;1916;-77
2021/11/02 12:27:09;;;;;;;;;;;10.80;99.90;;;10.49;80.28;94327.63;10515609;28;1897;-77
2021/11/02 12:32:12;;;;;;;;;;;11.20;99.90;;;10.86;78.14;94330.97;10528658;28;2013;-75
2021/11/02 12:37:15;;;;;;;;;;;11.40;99.90;;;10.90;78.94;94324.66;10534703;28;1913;-76
2021/11/02 12:42:20;;;;;;;;;;;11.60;99.90;;;10.64;76.84;94321.09;10524326;28;1949;-74
2021/11/02 12:47:23;;;;;;;;;;;11.70;99.90;;;10.01;79.21;94326.34;10505357;28;2378;-76
2021/11/02 12:52:26;;;;;;;;;;;11.40;99.90;;;9.79;80.63;94342.44;10521256;28;1985;-75
2021/11/02 12:57:29;;;;;;;;;;;11.00;99.90;;;9.60;80.88;94337.22;10509696;28;1913;-76
2021/11/02 13:02:32;;;;;;;;;;;10.80;99.90;;;9.87;81.50;94339.03;10518521;28;1872;-77
2021/11/02 13:07:35;;;;;;;;;;;10.80;99.90;;;9.95;80.94;94332.16;10518648;28;1815;-76
2021/11/02 13:12:39;;;;;;;;;;;10.90;99.90;;;9.90;79.58;94321.53;10511226;28;2045;-76
2021/11/02 13:17:43;;;;;;;;;;;10.90;99.90;;;10.08;80.88;94336.66;10511530;28;1918;-76
2021/11/02 13:22:47;;;;;;;;;;;11.00;99.90;;;10.32;78.58;94322.97;10516438;28;1898;-76
2021/11/02 13:27:50;;;;;;;;;;;11.10;99.90;;;10.21;78.39;94330.44;10518353;28;2021;-76
2021/11/02 13:32:53;;;;;;;;;;;11.20;99.90;;;10.38;78.25;94321.72;10518244;28;1902;-76
2021/11/02 13:37:55;;;;;;;;;;;11.30;99.90;;;10.41;78.46;94325.69;10508284;28;1910;-76
2021/11/02 13:42:58;;;;;;;;;;;11.30;99.90;;;10.28;77.81;94327.34;10533755;28;2085;-76
2021/11/02 13:48:04;;;;;;;;;;;11.30;99.90;;;10.25;76.25;94336.81;10501111;28;1859;-76
2021/11/02 13:53:07;;;;;;;;;;;11.30;99.90;;;10.18;73.02;94332.94;10522877;28;1487;-76
2021/11/02 13:58:09;;;;;;;;;;;11.20;99.90;;;10.17;76.53;94328.66;10526566;28;1910;-78
2021/11/02 14:03:15;;;;;;;;;;;11.10;99.90;;;10.28;73.07;94328.13;10517522;28;1942;-77
2021/11/02 14:08:19;;;;;;;;;;;11.10;99.90;;;10.33;73.96;94334.50;10525078;28;2142;-77
2021/11/02 14:13:22;;;;;;;;;;;11.20;99.90;;;10.49;72.96;94314.97;10511626;28;1871;-77
2021/11/02 14:18:25;;;;;;;;;;;11.30;99.90;;;10.42;73.53;94332.63;10526823;28;1914;-75
2021/11/02 14:23:28;;;;;;;;;;;11.30;99.90;;;10.27;73.46;94321.19;10523599;28;1954;-76
2021/11/02 14:28:30;;;;;;;;;;;11.30;99.90;;;10.18;72.42;94325.69;10521438;28;1838;-76
2021/11/02 14:33:34;;;;;;;;;;;11.20;99.90;;;9.85;71.89;94329.69;10528594;28;1919;-76
2021/11/02 14:38:37;;;;;;;;;;;11.00;99.90;;;9.57;72.21;94335.16;10513693;28;1906;-76
2021/11/02 14:43:55;;;;;;;;;;;10.80;99.90;;;9.26;74.88;94320.81;10521765;28;1942;-77
2021/11/02 14:48:58;;;;;;;;;;;10.60;99.90;;;9.13;75.56;94325.88;10493470;28;1911;-74
2021/11/02 14:54:01;;;;;;;;;;;10.40;99.90;;;9.11;74.91;94332.63;10517645;28;1906;-75
2021/11/02 14:59:03;;;;;;;;;;;10.20;99.90;;;8.99;76.08;94330.47;10523172;28;2393;-75
2021/11/02 15:04:06;;;;;;;;;;;10.10;99.90;;;8.84;77.31;94333.41;10520566;28;1891;-77
2021/11/02 15:09:09;;;;;;;;;;;10.10;99.90;;;8.74;78.34;94339.00;10513386;28;2348;-76
2021/11/02 15:14:12;;;;;;;;;;;10.00;99.90;;;8.64;78.70;94339.97;10525664;28;1921;-73
2021/11/02 15:19:15;;;;;;;;;;;9.90;99.90;;;8.41;79.56;94341.72;10524557;28;1883;-79
2021/11/02 15:24:18;;;;;;;;;;;9.70;99.90;;;8.31;81.21;94352.56;10542682;28;1930;-76
2021/11/02 15:29:21;;;;;;;;;;;9.60;99.90;;;8.17;81.02;94357.09;10500150;28;2529;-75
2021/11/02 15:34:24;;;;;;;;;;;9.40;99.90;;;8.00;84.04;94358.41;10522445;28;1976;-74
2021/11/02 15:39:27;;;;;;;;;;;9.30;99.90;;;7.83;83.96;94364.28;10517320;28;1933;-75
2021/11/02 15:44:30;;;;;;;;;;;9.20;99.90;;;7.69;86.20;94368.75;10515245;28;1903;-75
2021/11/02 15:49:33;;;;;;;;;;;9.00;99.90;;;7.58;86.90;94378.81;10519011;28;1877;-76
2021/11/02 15:54:35;;;;;;;;;;;8.90;99.90;;;7.52;86.90;94381.84;10521493;28;2009;-74
2021/11/02 15:59:39;;;;;;;;;;;8.80;99.90;;;7.39;89.92;94387.91;10519068;28;2059;-74
2021/11/02 16:04:42;;;;;;;;;;;8.70;99.90;;;7.39;90.04;94394.06;10520895;28;2017;-76
2021/11/02 16:09:44;;;;;;;;;;;8.70;99.90;;;7.45;90.83;94395.56;10503934;28;1985;-78
2021/11/02 16:14:47;;;;;;;;;;;8.70;99.90;;;7.40;89.95;94398.31;10502751;28;2272;-75
2021/11/02 16:19:50;;;;;;;;;;;8.70;99.90;;;7.40;91.16;94398.31;10526201;28;1941;-77
2021/11/02 16:24:53;;;;;;;;;;;8.60;99.90;;;7.28;92.09;94406.75;10525332;28;1994;-76
2021/11/02 16:29:56;;;;;;;;;;;8.60;99.90;;;7.32;91.19;94402.41;10526059;28;2019;-77
2021/11/02 16:34:59;;;;;;;;;;;8.60;99.90;;;7.37;90.50;94406.09;10528846;28;2018;-77
2021/11/02 16:40:02;;;;;;;;;;;8.60;99.90;;;7.30;89.92;94415.25;10520879;28;1930;-75
2021/11/02 16:45:05;;;;;;;;;;;8.60;99.90;;;7.30;90.09;94415.25;10519765;28;1868;-76
2021/11/02 16:50:08;;;;;;;;;;;8.60;99.90;;;7.33;89.61;94411.22;10517409;28;2135;-74
2021/11/02 16:55:11;;;;;;;;;;;8.60;99.90;;;7.45;89.03;94411.63;10544404;28;1886;-75
2021/11/02 17:00:15;;;;;;;;;;;8.60;99.90;;;7.43;89.28;94416.44;10566873;28;1883;-75
2021/11/02 17:05:18;;;;;;;;;;;8.60;99.90;;;7.47;89.33;94428.16;10563876;28;1861;-75
2021/11/02 17:10:21;;;;;;;;;;;8.60;99.90;;;7.49;89.91;94436.69;10527750;28;1922;-77
2021/11/02 17:15:24;;;;;;;;;;;8.70;99.90;;;7.43;90.26;94440.50;10521858;28;1886;-77
2021/11/02 17:20:26;;;;;;;;;;;8.70;99.90;;;7.26;90.54;94454.34;10499887;28;1918;-75
2021/11/02 17:25:29;;;;;;;;;;;8.60;99.90;;;7.17;92.11;94455.25;10525676;28;2266;-77
2021/11/02 17:30:33;;;;;;;;;;;8.50;99.90;;;7.00;92.67;94451.16;10524494;28;1918;-77
2021/11/02 17:35:36;;;;;;;;;;;8.30;99.90;;;7.07;91.51;94450.81;10538243;28;1965;-75
2021/11/02 17:40:38;;;;;;;;;;;8.30;99.90;;;6.90;92.50;94461.94;10553788;28;1947;-77
2021/11/02 17:45:42;;;;;;;;;;;8.20;99.90;;;6.73;93.65;94457.00;10542065;28;1804;-74
2021/11/02 17:50:45;;;;;;;;;;;8.10;99.90;;;6.60;93.84;94462.19;10564494;28;1888;-75
2021/11/02 17:55:48;;;;;;;;;;;7.90;99.90;;;6.47;95.42;94466.31;10560424;28;1961;-76
2021/11/02 18:00:51;;;;;;;;;;;7.90;99.90;;;6.56;95.37;94488.69;10537446;28;1843;-75
2021/11/02 18:06:06;;;;;;;;;;;7.80;99.90;;;6.39;96.25;94486.41;10526317;28;1903;-75
2021/11/02 18:11:11;;;;;;;;;;;7.90;99.90;;;6.26;96.91;94503.03;10527980;28;1895;-74
2021/11/02 18:16:13;;;;;;;;;;;7.70;99.90;;;6.21;96.75;94497.72;10498323;28;1963;-77
2021/11/02 18:21:16;;;;;;;;;;;7.60;99.90;;;6.10;98.02;94498.84;10545609;28;1895;-80
2021/11/02 18:26:25;;;;;;;;;;;7.50;99.90;;;6.03;98.66;94499.16;10566233;28;1493;-79
2021/11/02 18:31:28;;;;;;;;;;;7.40;99.90;;;6.11;98.59;94495.16;10555178;28;1915;-79
2021/11/02 18:36:31;;;;;;;;;;;7.30;99.90;;;5.98;98.81;94501.88;10559126;28;1902;-79
2021/11/02 18:41:54;;;;;;;;;;;7.30;99.90;;;5.77;100.00;94495.81;10540674;28;2347;-78
2021/11/02 18:47:16;;;;;;;;;;;7.30;99.90;;;5.66;100.00;94504.91;10562352;28;1908;-78
2021/11/02 18:52:40;;;;;;;;;;;7.00;99.90;;;5.67;100.00;94512.66;10555010;28;1980;-77
2021/11/02 18:58:03;;;;;;;;;;;7.00;99.90;;;5.59;100.00;94507.88;10562822;28;2000;-78
2021/11/02 19:03:26;;;;;;;;;;;7.00;99.90;;;5.62;100.00;94512.69;10569474;28;1902;-80
2021/11/02 19:08:49;;;;;;;;;;;6.90;99.90;;;5.54;100.00;94509.78;10567502;28;1875;-80
2021/11/02 19:14:13;;;;;;;;;;;6.90;99.90;;;5.47;100.00;94511.94;10554247;28;1939;-79
2021/11/02 19:19:34;;;;;;;;;;;6.80;99.90;;;5.38;100.00;94509.84;10557042;28;1901;-81
2021/11/02 19:24:56;;;;;;;;;;;6.80;99.90;;;5.31;100.00;94519.97;10562737;28;1754;-80
2021/11/02 19:29:59;;;;;;;;;;;6.70;99.90;;;5.39;100.00;94524.75;10539697;28;1877;-78
2021/11/02 19:35:02;;;;;;;;;;;6.70;99.90;;;5.41;100.00;94525.28;10546037;28;1737;-79
2021/11/02 19:40:04;;;;;;;;;;;6.80;99.90;;;5.42;100.00;94526.88;10540497;28;1886;-78
2021/11/02 19:45:07;;;;;;;;;;;6.80;99.90;;;5.34;100.00;94524.78;10546828;28;1738;-78
2021/11/02 19:50:11;;;;;;;;;;;6.70;99.90;;;5.40;99.47;94531.66;10539602;28;1181;-77
2021/11/02 19:55:14;;;;;;;;;;;6.70;99.90;;;5.38;99.38;94525.81;10527049;28;2014;-78
2021/11/02 20:00:17;;;;;;;;;;;6.70;99.90;;;5.24;99.78;94524.78;10531924;28;1907;-79
2021/11/02 20:05:20;;;;;;;;;;;6.60;99.90;;;5.22;100.00;94528.81;10529280;28;1895;-79
2021/11/02 20:10:23;;;;;;;;;;;6.50;99.90;;;5.23;100.00;94528.53;10528310;28;1875;-77
2021/11/02 20:15:26;;;;;;;;;;;6.50;99.90;;;5.04;100.00;94533.63;10526510;28;1991;-78
2021/11/02 20:20:29;;;;;;;;;;;6.40;99.90;;;5.07;100.00;94533.06;10533140;28;1934;-78
2021/11/02 20:25:32;;;;;;;;;;;6.40;99.90;;;4.87;100.00;94536.56;10531746;28;1967;-81
2021/11/02 20:30:34;;;;;;;;;;;6.30;99.90;;;4.97;100.00;94548.28;10566740;28;1887;-82
2021/11/02 20:35:37;;;;;;;;;;;6.20;99.90;;;4.96;100.00;94544.81;10549380;28;1894;-81
2021/11/02 20:40:41;;;;;;;;;;;6.20;99.90;;;4.92;100.00;94542.97;10572350;28;1726;-79
2021/11/02 20:45:44;;;;;;;;;;;6.20;99.90;;;4.84;100.00;94547.78;10561233;28;1943;-82
2021/11/02 20:50:46;;;;;;;;;;;6.20;99.90;;;4.86;100.00;94545.63;10565271;28;1914;-81
2021/11/02 20:55:49;;;;;;;;;;;6.10;99.90;;;4.74;100.00;94550.41;10566963;28;2169;-80
2021/11/02 21:00:52;;;;;;;;;;;6.10;99.90;;;4.67;100.00;94552.56;10555575;28;2256;-80
2021/11/02 21:05:55;;;;;;;;;;;6.00;99.90;;;4.51;100.00;94559.72;10557189;28;1931;-81
2021/11/02 21:11:00;;;;;;;;;;;5.90;99.90;;;4.44;100.00;94547.75;10558975;28;2139;-80
2021/11/02 21:16:07;;;;;;;;;;;5.80;99.90;;;4.41;100.00;94546.41;10554514;28;1976;-80
2021/11/02 21:21:10;;;;;;;;;;;5.80;99.90;;;4.44;100.00;94545.88;10546444;28;1930;-79
2021/11/02 21:26:13;;;;;;;;;;;5.70;99.90;;;4.33;100.00;94539.78;10553203;28;1879;-79
2021/11/02 21:31:17;;;;;;;;;;;5.70;99.90;;;4.27;100.00;94548.81;10548528;28;1935;-80
2021/11/02 21:36:20;;;;;;;;;;;5.60;99.90;;;4.43;100.00;94546.16;10527199;28;1915;-80
2021/11/02 21:41:23;;;;;;;;;;;5.80;99.90;;;4.43;100.00;94546.94;10559379;28;1928;-79
2021/11/02 21:46:26;;;;;;;;;;;5.70;99.90;;;4.31;100.00;94544.53;10532411;28;1895;-80
2021/11/02 21:51:30;;;;;;;;;;;5.60;99.90;;;4.21;100.00;94549.84;10554664;28;1982;-79
2021/11/02 21:56:33;;;;;;;;;;;5.60;99.90;;;4.19;100.00;94551.16;10551811;28;2065;-80
2021/11/02 22:01:36;;;;;;;;;;;5.50;99.90;;;4.15;100.00;94550.09;10538647;28;1974;-79
2021/11/02 22:06:39;;;;;;;;;;;5.50;99.90;;;4.13;100.00;94549.56;10563290;28;1979;-82
2021/11/02 22:11:42;;;;;;;;;;;5.50;99.90;;;4.12;100.00;94535.47;10560181;28;1911;-80
2021/11/02 22:16:45;;;;;;;;;;;5.40;99.90;;;4.11;100.00;94539.19;10568704;28;2273;-78
2021/11/02 22:21:48;;;;;;;;;;;5.40;99.90;;;3.99;100.00;94530.66;10564253;28;1817;-80
2021/11/02 22:26:51;;;;;;;;;;;5.40;99.90;;;3.89;100.00;94525.31;10550382;28;1890;-80
2021/11/02 22:31:54;;;;;;;;;;;5.30;99.90;;;3.79;100.00;94521.56;10540463;28;2238;-81
2021/11/02 22:36:57;;;;;;;;;;;5.30;99.90;;;3.76;100.00;94521.28;10553826;28;2257;-81
2021/11/02 22:42:00;;;;;;;;;;;5.30;99.90;;;3.78;100.00;94514.66;10570731;28;1803;-80
2021/11/02 22:47:02;;;;;;;;;;;5.10;99.90;;;3.99;100.00;94509.38;10550089;28;1972;-81
2021/11/02 22:52:05;;;;;;;;;;;5.20;99.90;;;3.95;100.00;94505.66;10559883;28;1926;-80
2021/11/02 22:57:08;;;;;;;;;;;5.30;99.90;;;3.86;100.00;94488.59;10559835;28;1886;-80
2021/11/02 23:02:12;;;;;;;;;;;5.20;99.90;;;3.73;100.00;94487.25;10557361;28;1817;-81
2021/11/02 23:07:15;;;;;;;;;;;5.10;99.90;;;3.75;100.00;94493.09;10540099;28;1986;-80
2021/11/02 23:12:18;;;;;;;;;;;5.10;99.90;;;3.73;100.00;94498.69;10546366;28;2237;-80
2021/11/02 23:17:21;;;;;;;;;;;5.00;99.90;;;3.85;100.00;94485.16;10546920;28;2274;-80
2021/11/02 23:22:24;;;;;;;;;;;5.00;99.90;;;3.76;100.00;94479.56;10548188;28;1907;-80
2021/11/02 23:27:27;;;;;;;;;;;5.10;99.90;;;3.66;100.00;94473.41;10554435;28;1844;-79
2021/11/02 23:32:30;;;;;;;;;;;5.00;99.90;;;3.67;100.00;94467.81;10548700;28;1938;-79
2021/11/02 23:37:35;;;;;;;;;;;4.90;99.90;;;3.61;100.00;94466.22;10547048;28;1970;-80
2021/11/02 23:42:38;;;;;;;;;;;4.90;99.90;;;3.61;100.00;94466.22;10544324;28;1952;-78
2021/11/02 23:47:44;;;;;;;;;;;4.90;99.90;;;3.55;100.00;94475.22;10529430;28;1964;-79
2021/11/02 23:52:49;;;;;;;;;;;4.80;99.90;;;3.48;100.00;94472.81;10516898;28;2135;-78
2021/11/02 23:57:53;;;;;;;;;;;4.80;99.90;;;3.53;100.00;94456.09;10539257;28;2173;-80
